createdAt,value
2019-05-07T00:00:43.873Z,12.35
2019-05-07T00:03:12.462Z,23.55
2019-05-07T00:05:42.758Z,15.58
2019-05-07T00:08:12.221Z,14.43
2019-05-07T00:10:42.479Z,14.70
2019-05-07T00:13:12.815Z,18.70
2019-05-07T00:15:41.896Z,18.92
2019-05-07T00:18:12.593Z,24.82
2019-05-07T00:20:42.281Z,18.70
2019-05-07T00:23:13.071Z,19.00
2019-05-07T00:25:42.153Z,22.10
2019-05-07T00:28:12.215Z,15.38
2019-05-07T00:30:42.490Z,11.25
2019-05-07T00:33:13.138Z,21.95
2019-05-07T00:35:43.071Z,20.27
2019-05-07T00:38:13.161Z,21.07
2019-05-07T00:40:59.287Z,16.57
2019-05-07T00:43:29.280Z,18.50
2019-05-07T00:46:02.357Z,16.65
2019-05-07T00:48:32.896Z,17.00
2019-05-07T00:51:18.986Z,13.22
2019-05-07T00:53:47.430Z,18.52
2019-05-07T00:56:15.944Z,9.13
2019-05-07T00:58:44.391Z,15.68
2019-05-07T01:01:13.139Z,11.85
2019-05-07T01:03:42.402Z,20.45
2019-05-07T01:06:12.876Z,14.53
2019-05-07T01:08:43.068Z,24.43
2019-05-07T01:11:13.193Z,12.33
2019-05-07T01:13:43.148Z,19.87
2019-05-07T01:16:12.891Z,10.30
2019-05-07T01:18:42.171Z,10.68
2019-05-07T01:21:13.063Z,16.20
2019-05-07T01:23:42.796Z,17.17
2019-05-07T01:26:12.465Z,18.92
2019-05-07T01:28:59.286Z,19.20
2019-05-07T01:31:34.274Z,23.20
2019-05-07T01:34:22.940Z,22.42
2019-05-07T01:36:52.342Z,18.90
2019-05-07T01:39:23.022Z,19.20
2019-05-07T01:41:52.425Z,18.67
2019-05-07T01:44:22.808Z,16.32
2019-05-07T01:46:52.888Z,14.40
2019-05-07T01:49:23.838Z,16.60
2019-05-07T01:51:52.974Z,24.47
2019-05-07T01:54:23.700Z,24.77
2019-05-07T01:56:52.255Z,16.82
2019-05-07T01:59:22.451Z,11.00
2019-05-07T02:01:52.825Z,17.82
2019-05-07T02:04:35.032Z,17.92
2019-05-07T02:07:05.107Z,15.00
2019-05-07T02:09:44.122Z,19.25
2019-05-07T02:12:17.147Z,24.18
2019-05-07T02:14:45.569Z,21.23
2019-05-07T02:17:14.019Z,22.17
2019-05-07T02:19:42.591Z,30.70
2019-05-07T02:22:13.262Z,24.27
2019-05-07T02:24:43.253Z,17.80
2019-05-07T02:27:12.627Z,18.10
2019-05-07T02:29:43.064Z,19.37
2019-05-07T02:32:13.287Z,20.27
2019-05-07T02:34:44.129Z,16.10
2019-05-07T02:37:13.376Z,17.45
2019-05-07T02:39:46.344Z,18.90
2019-05-07T02:42:14.864Z,25.25
2019-05-07T02:45:04.170Z,19.07
2019-05-07T02:47:33.515Z,21.75
2019-05-07T02:50:03.754Z,21.20
2019-05-07T02:52:53.321Z,13.40
2019-05-07T02:55:23.165Z,21.87
2019-05-07T02:57:54.046Z,13.13
2019-05-07T03:00:24.107Z,15.88
2019-05-07T03:02:53.144Z,12.05
2019-05-07T03:05:23.090Z,18.85
2019-05-07T03:07:53.617Z,17.35
2019-05-07T03:10:23.734Z,23.95
2019-05-07T03:12:53.691Z,14.78
2019-05-07T03:15:24.222Z,23.02
2019-05-07T03:17:53.763Z,17.12
2019-05-07T03:20:24.128Z,14.93
2019-05-07T03:22:53.893Z,11.97
2019-05-07T03:25:39.116Z,13.85
2019-05-07T03:28:07.541Z,18.85
2019-05-07T03:30:45.057Z,21.68
2019-05-07T03:33:16.080Z,20.20
2019-05-07T03:35:46.775Z,15.03
2019-05-07T03:38:14.035Z,21.93
2019-05-07T03:40:44.834Z,14.75
2019-05-07T03:43:13.795Z,19.98
2019-05-07T03:45:50.164Z,13.65
2019-05-07T03:48:23.425Z,14.25
2019-05-07T03:50:52.899Z,14.38
2019-05-07T03:53:23.170Z,16.93
2019-05-07T03:55:53.691Z,16.90
2019-05-07T03:58:23.500Z,25.25
2019-05-07T04:00:53.665Z,13.00
2019-05-07T04:03:24.535Z,13.58
2019-05-07T04:05:53.166Z,11.70
2019-05-07T04:08:23.622Z,21.52
2019-05-07T04:10:53.850Z,19.92
2019-05-07T04:13:23.840Z,18.23
2019-05-07T04:15:52.735Z,18.75
2019-05-07T04:18:23.688Z,21.33
2019-05-07T04:20:53.971Z,19.02
2019-05-07T04:23:23.362Z,17.85
2019-05-07T04:25:54.312Z,17.27
2019-05-07T04:28:43.663Z,13.00
2019-05-07T04:31:14.162Z,27.77
2019-05-07T04:33:44.027Z,15.68
2019-05-07T04:36:14.422Z,16.65
2019-05-07T04:38:43.987Z,13.83
2019-05-07T04:41:13.874Z,14.18
2019-05-07T04:43:44.183Z,16.07
2019-05-07T04:46:14.384Z,15.80
2019-05-07T04:48:43.841Z,12.40
2019-05-07T04:51:14.372Z,10.78
2019-05-07T04:53:43.146Z,15.95
2019-05-07T04:56:14.053Z,12.15
2019-05-07T04:58:43.299Z,17.12
2019-05-07T05:01:13.983Z,15.38
2019-05-07T05:03:43.925Z,24.00
2019-05-07T05:06:13.687Z,12.68
2019-05-07T05:08:43.500Z,10.05
2019-05-07T05:11:12.875Z,12.55
2019-05-07T05:13:44.363Z,13.80
2019-05-07T05:16:27.104Z,10.90
2019-05-07T05:18:56.643Z,15.63
2019-05-07T05:21:32.394Z,9.43
2019-05-07T05:24:07.962Z,16.67
2019-05-07T05:26:36.415Z,6.87
2019-05-07T05:29:06.116Z,9.28
2019-05-07T05:31:34.557Z,11.28
2019-05-07T05:34:02.998Z,11.50
2019-05-07T05:36:33.047Z,8.35
2019-05-07T05:39:02.541Z,10.58
2019-05-07T05:41:34.136Z,10.35
2019-05-07T05:44:12.712Z,10.10
2019-05-07T05:46:42.867Z,10.50
2019-05-07T05:49:11.857Z,11.05
2019-05-07T05:51:45.313Z,13.22
2019-05-07T05:54:31.847Z,10.38
2019-05-07T05:57:02.662Z,6.65
2019-05-07T05:59:48.155Z,12.58
2019-05-07T06:02:12.174Z,8.88
2019-05-07T06:04:48.148Z,8.68
2019-05-07T06:07:27.304Z,11.30
2019-05-07T06:10:02.566Z,8.85
2019-05-07T06:12:43.979Z,9.33
2019-05-07T06:15:14.197Z,9.75
2019-05-07T06:17:56.395Z,7.83
2019-05-07T06:20:42.790Z,11.40
2019-05-07T06:23:22.427Z,8.55
2019-05-07T06:25:49.083Z,8.98
2019-05-07T06:28:17.535Z,8.63
2019-05-07T06:30:45.966Z,11.90
2019-05-07T06:33:14.420Z,10.80
2019-05-07T06:35:43.060Z,10.13
2019-05-07T06:38:12.601Z,17.52
2019-05-07T06:40:57.921Z,11.18
2019-05-07T06:46:04.682Z,10.27
2019-05-07T06:48:41.902Z,9.68
2019-05-07T06:51:03.297Z,8.10
2019-05-07T06:53:33.658Z,11.45
2019-05-07T06:56:04.196Z,6.53
2019-05-07T06:58:34.419Z,5.72
2019-05-07T07:01:22.806Z,10.88
2019-05-07T07:03:59.255Z,13.72
2019-05-07T07:06:33.277Z,9.25
2019-05-07T07:09:15.545Z,8.97
2019-05-07T07:11:45.744Z,13.22
2019-05-07T07:14:15.871Z,11.28
2019-05-07T07:16:44.438Z,8.35
2019-05-07T07:19:12.883Z,10.72
2019-05-07T07:21:42.169Z,8.58
2019-05-07T07:24:12.680Z,14.25
2019-05-07T07:26:42.186Z,9.15
2019-05-07T07:29:12.792Z,14.10
2019-05-07T07:31:42.969Z,6.30
2019-05-07T07:34:12.941Z,11.15
2019-05-07T07:36:43.363Z,13.80
2019-05-07T07:39:12.721Z,5.40
2019-05-07T07:41:52.330Z,10.28
2019-05-07T07:44:25.059Z,10.72
2019-05-07T07:46:53.502Z,8.58
2019-05-07T07:49:22.306Z,7.62
2019-05-07T07:51:52.565Z,9.75
2019-05-07T07:54:22.618Z,9.88
2019-05-07T07:56:56.195Z,10.05
2019-05-07T07:59:27.540Z,8.73
2019-05-07T08:02:01.884Z,7.42
2019-05-07T08:04:32.023Z,10.55
2019-05-07T08:07:05.250Z,17.20
2019-05-07T08:09:35.440Z,9.68
2019-05-07T08:12:04.719Z,8.85
2019-05-07T08:14:33.564Z,10.28
2019-05-07T08:17:03.803Z,14.65
2019-05-07T08:19:32.901Z,8.53
2019-05-07T08:22:02.795Z,7.37
2019-05-07T08:24:32.167Z,8.75
2019-05-07T08:27:02.290Z,13.13
2019-05-07T08:29:32.474Z,10.18
2019-05-07T08:32:03.736Z,13.58
2019-05-07T08:34:33.804Z,8.58
2019-05-07T08:37:08.420Z,11.05
2019-05-07T08:39:36.853Z,8.85
2019-05-07T08:42:05.436Z,8.75
2019-05-07T08:44:47.624Z,10.08
2019-05-07T08:47:17.716Z,6.60
2019-05-07T08:49:46.154Z,5.85
2019-05-07T08:52:14.684Z,10.40
2019-05-07T08:54:43.144Z,9.83
2019-05-07T08:57:12.201Z,10.18
2019-05-07T08:59:58.419Z,5.40
2019-05-07T09:02:17.290Z,15.90
2019-05-07T09:04:45.810Z,10.45
2019-05-07T09:07:14.480Z,17.98
2019-05-07T09:09:43.010Z,9.23
2019-05-07T09:12:12.421Z,8.08
2019-05-07T09:14:42.621Z,8.08
2019-05-07T09:17:12.812Z,7.65
2019-05-07T09:19:50.883Z,10.63
2019-05-07T09:22:12.742Z,9.93
2019-05-07T09:24:42.420Z,10.00
2019-05-07T09:27:12.874Z,11.70
2019-05-07T09:29:52.090Z,10.23
2019-05-07T09:32:25.108Z,8.50
2019-05-07T09:34:58.020Z,13.28
2019-05-07T09:37:32.541Z,7.17
2019-05-07T09:40:02.824Z,11.38
2019-05-07T09:42:33.123Z,10.35
2019-05-07T09:45:01.954Z,11.05
2019-05-07T09:47:32.548Z,12.85
2019-05-07T09:50:07.000Z,11.83
2019-05-07T09:52:32.147Z,5.87
2019-05-07T09:55:11.065Z,9.50
2019-05-07T09:57:32.465Z,10.45
2019-05-07T10:00:02.261Z,9.48
2019-05-07T10:02:31.986Z,10.08
2019-05-07T10:05:02.356Z,7.53
2019-05-07T10:07:32.419Z,7.15
2019-05-07T10:10:03.131Z,11.53
2019-05-07T10:12:35.896Z,9.03
2019-05-07T10:15:06.719Z,7.17
2019-05-07T10:17:42.653Z,7.90
2019-05-07T10:20:21.114Z,11.03
2019-05-07T10:22:42.877Z,9.75
2019-05-07T10:25:12.231Z,9.15
2019-05-07T10:27:43.215Z,8.53
2019-05-07T10:30:12.857Z,7.08
2019-05-07T10:32:42.640Z,7.65
2019-05-07T10:35:12.822Z,5.42
2019-05-07T10:37:43.023Z,5.75
2019-05-07T10:40:12.404Z,14.10
2019-05-07T10:42:43.025Z,10.38
2019-05-07T10:45:17.303Z,8.85
2019-05-07T10:47:47.438Z,6.72
2019-05-07T10:50:36.476Z,5.72
2019-05-07T10:52:57.142Z,3.83
2019-05-07T10:55:25.590Z,5.87
2019-05-07T10:57:54.048Z,8.68
2019-05-07T11:00:25.216Z,10.58
2019-05-07T11:02:53.732Z,4.67
2019-05-07T11:05:22.239Z,8.83
2019-05-07T11:07:50.855Z,7.37
2019-05-07T11:10:21.810Z,12.00
2019-05-07T11:12:51.580Z,5.03
2019-05-07T11:15:21.619Z,9.38
2019-05-07T11:18:06.839Z,8.00
2019-05-07T11:20:46.476Z,5.83
2019-05-07T11:23:05.503Z,9.45
2019-05-07T11:25:34.208Z,4.83
2019-05-07T11:28:02.927Z,4.75
2019-05-07T11:30:32.097Z,8.18
2019-05-07T11:33:02.494Z,8.80
2019-05-07T11:35:31.924Z,6.80
2019-05-07T11:38:02.614Z,5.20
2019-05-07T11:40:51.798Z,7.30
2019-05-07T11:43:24.631Z,8.20
2019-05-07T11:46:03.559Z,5.72
2019-05-07T11:48:36.185Z,8.05
2019-05-07T11:51:05.072Z,7.55
2019-05-07T11:53:35.187Z,10.68
2019-05-07T11:56:03.612Z,5.35
2019-05-07T11:58:32.621Z,7.03
2019-05-07T12:01:04.035Z,7.33
2019-05-07T12:03:32.637Z,8.15
2019-05-07T12:06:02.018Z,9.68
2019-05-07T12:08:40.924Z,7.60
2019-05-07T12:11:02.383Z,11.80
2019-05-07T12:13:32.372Z,11.35
2019-05-07T12:16:03.056Z,6.42
2019-05-07T12:18:31.993Z,7.97
2019-05-07T12:21:03.759Z,9.03
2019-05-07T12:23:33.021Z,8.08
2019-05-07T12:26:02.257Z,6.55
2019-05-07T12:28:33.399Z,5.87
2019-05-07T12:31:06.246Z,9.23
2019-05-07T12:33:45.079Z,6.72
2019-05-07T12:36:15.258Z,14.00
2019-05-07T12:38:43.759Z,9.73
2019-05-07T12:41:33.190Z,6.87
2019-05-07T12:44:04.167Z,7.00
2019-05-07T12:46:33.689Z,8.08
2019-05-07T12:49:03.183Z,5.70
2019-05-07T12:51:37.937Z,10.45
2019-05-07T12:54:08.859Z,8.55
2019-05-07T12:56:37.298Z,9.50
2019-05-07T12:59:05.888Z,10.70
2019-05-07T13:01:38.518Z,8.08
2019-05-07T13:04:08.607Z,7.30
2019-05-07T13:06:38.688Z,8.35
2019-05-07T13:09:07.198Z,7.03
2019-05-07T13:11:35.688Z,10.50
2019-05-07T13:14:04.385Z,7.10
2019-05-07T13:16:32.896Z,5.92
2019-05-07T13:19:01.883Z,7.90
2019-05-07T13:21:31.947Z,9.10
2019-05-07T13:24:02.605Z,9.25
2019-05-07T13:26:32.187Z,10.65
2019-05-07T13:29:02.492Z,10.63
2019-05-07T13:31:32.860Z,9.90
2019-05-07T13:34:02.998Z,9.73
2019-05-07T13:36:33.576Z,8.15
2019-05-07T13:39:06.423Z,11.50
2019-05-07T13:41:36.657Z,9.48
2019-05-07T13:44:24.760Z,12.20
2019-05-07T13:46:55.326Z,10.08
2019-05-07T13:49:23.991Z,8.78
2019-05-07T13:52:03.197Z,9.55
2019-05-07T13:54:22.910Z,8.95
2019-05-07T13:56:52.550Z,12.70
2019-05-07T13:59:22.380Z,9.70
2019-05-07T14:01:52.595Z,11.12
2019-05-07T14:04:22.293Z,10.78
2019-05-07T14:06:52.960Z,9.58
2019-05-07T14:09:24.377Z,13.90
2019-05-07T14:11:54.623Z,11.12
2019-05-07T14:14:23.148Z,11.20
2019-05-07T14:16:52.959Z,11.63
2019-05-07T14:19:22.526Z,7.55
2019-05-07T14:21:52.576Z,10.38
2019-05-07T14:24:22.330Z,7.40
2019-05-07T14:26:52.797Z,6.30
2019-05-07T14:29:24.472Z,10.63
2019-05-07T14:31:58.043Z,9.20
2019-05-07T14:34:34.356Z,6.60
2019-05-07T14:37:14.510Z,6.62
2019-05-07T14:39:42.968Z,9.48
2019-05-07T14:42:15.852Z,8.88
2019-05-07T14:44:47.534Z,11.33
2019-05-07T14:47:19.280Z,6.22
2019-05-07T14:49:48.353Z,12.25
2019-05-07T14:52:28.972Z,7.08
2019-05-07T14:54:47.167Z,6.37
2019-05-07T14:57:15.714Z,7.53
2019-05-07T14:59:44.694Z,9.58
2019-05-07T15:02:13.387Z,6.33
2019-05-07T15:04:41.994Z,9.13
2019-05-07T15:07:12.017Z,10.45
2019-05-07T15:09:42.395Z,8.80
2019-05-07T15:12:12.428Z,9.55
2019-05-07T15:14:42.181Z,12.85
2019-05-07T15:17:15.436Z,10.93
2019-05-07T15:19:43.884Z,12.43
2019-05-07T15:22:26.072Z,15.23
2019-05-07T15:24:54.604Z,12.35
2019-05-07T15:27:23.669Z,15.48
2019-05-07T15:29:52.656Z,13.72
2019-05-07T15:32:21.807Z,15.28
2019-05-07T15:34:52.536Z,13.90
2019-05-07T15:37:20.793Z,17.15
2019-05-07T15:39:49.258Z,15.20
2019-05-07T15:42:17.722Z,18.15
2019-05-07T15:44:46.244Z,15.70
2019-05-07T15:47:19.066Z,16.00
2019-05-07T15:49:47.510Z,12.53
2019-05-07T15:52:22.044Z,18.62
2019-05-07T15:54:52.099Z,14.15
2019-05-07T15:57:24.643Z,14.28
2019-05-07T15:59:55.332Z,15.98
2019-05-07T16:02:28.118Z,14.68
2019-05-07T16:04:57.870Z,15.95
2019-05-07T16:07:26.295Z,14.85
2019-05-07T16:09:54.762Z,17.60
2019-05-07T16:12:23.695Z,12.58
2019-05-07T16:14:55.049Z,15.78
2019-05-07T16:17:25.186Z,16.23
2019-05-07T16:19:55.171Z,16.93
2019-05-07T16:22:25.536Z,17.65
2019-05-07T16:24:54.050Z,16.48
2019-05-07T16:27:22.537Z,18.92
2019-05-07T16:29:52.685Z,18.12
2019-05-07T16:32:23.933Z,18.42
2019-05-07T16:34:52.762Z,20.32
2019-05-07T16:37:21.700Z,19.32
2019-05-07T16:39:50.284Z,18.17
2019-05-07T16:42:21.801Z,20.32
2019-05-07T16:44:52.170Z,23.85
2019-05-07T16:47:22.683Z,21.25
2019-05-07T16:49:50.735Z,22.05
2019-05-07T16:52:19.178Z,20.43
2019-05-07T16:54:47.636Z,18.82
2019-05-07T16:57:33.939Z,17.98
2019-05-07T17:00:02.991Z,17.25
2019-05-07T17:02:49.101Z,20.20
2019-05-07T17:05:22.722Z,18.73
2019-05-07T17:07:55.187Z,18.85
2019-05-07T17:10:23.618Z,17.70
2019-05-07T17:12:52.549Z,22.70
2019-05-07T17:15:24.307Z,18.15
2019-05-07T17:18:02.820Z,16.82
2019-05-07T17:20:32.839Z,18.73
2019-05-07T17:23:02.998Z,16.50
2019-05-07T17:25:37.346Z,19.95
2019-05-07T17:28:07.526Z,22.90
2019-05-07T17:30:37.762Z,22.65
2019-05-07T17:33:06.861Z,19.73
2019-05-07T17:35:36.847Z,18.70
2019-05-07T17:38:09.614Z,18.07
2019-05-07T17:40:35.492Z,18.05
2019-05-07T17:43:04.106Z,19.85
2019-05-07T17:45:35.674Z,18.35
2019-05-07T17:48:04.490Z,24.15
2019-05-07T17:50:34.658Z,18.30
2019-05-07T17:53:03.107Z,20.48
2019-05-07T17:55:33.198Z,20.50
2019-05-07T17:58:02.046Z,19.35
2019-05-07T18:00:32.718Z,19.92
2019-05-07T18:03:18.710Z,21.12
2019-05-07T18:05:47.141Z,19.02
2019-05-07T18:08:15.588Z,22.20
2019-05-07T18:10:44.027Z,24.85
2019-05-07T18:13:12.478Z,22.93
2019-05-07T18:15:42.787Z,26.55
2019-05-07T18:18:12.861Z,26.48
2019-05-07T18:20:42.200Z,22.55
2019-05-07T18:23:16.834Z,24.25
2019-05-07T18:25:42.820Z,23.75
2019-05-07T18:28:12.318Z,25.97
2019-05-07T18:30:41.171Z,27.37
2019-05-07T18:33:13.797Z,27.20
2019-05-07T18:35:43.159Z,30.23
2019-05-07T18:38:11.951Z,31.23
2019-05-07T18:40:42.124Z,29.50
2019-05-07T18:43:12.237Z,33.53
2019-05-07T18:45:42.448Z,34.18
2019-05-07T18:48:13.180Z,29.15
2019-05-07T18:50:42.081Z,24.77
2019-05-07T18:53:12.246Z,29.55
2019-05-07T18:55:42.373Z,29.23
2019-05-07T18:58:13.201Z,25.32
2019-05-07T19:00:42.925Z,25.57
2019-05-07T19:03:12.708Z,30.27
2019-05-07T19:05:43.878Z,28.85
2019-05-07T19:08:13.506Z,25.85
2019-05-07T19:10:42.920Z,31.30
2019-05-07T19:13:11.589Z,27.02
2019-05-07T19:15:43.132Z,28.27
2019-05-07T19:18:12.172Z,24.52
2019-05-07T19:20:42.273Z,24.35
2019-05-07T19:23:13.755Z,24.82
2019-05-07T19:25:42.679Z,24.52
2019-05-07T19:28:15.075Z,28.05
2019-05-07T19:30:43.386Z,27.10
2019-05-07T19:33:12.290Z,25.70
2019-05-07T19:35:41.900Z,23.20
2019-05-07T19:38:10.546Z,26.33
2019-05-07T19:40:38.992Z,29.63
2019-05-07T19:43:09.124Z,29.35
2019-05-07T19:45:37.563Z,29.32
2019-05-07T19:48:06.020Z,25.48
2019-05-07T19:50:34.466Z,27.87
2019-05-07T19:53:03.057Z,26.85
2019-05-07T19:55:33.184Z,33.60
2019-05-07T19:58:03.270Z,31.82
2019-05-07T20:00:32.751Z,33.25
2019-05-07T20:03:07.439Z,29.67
2019-05-07T20:05:37.372Z,32.38
2019-05-07T20:08:06.097Z,29.87
2019-05-07T20:10:37.715Z,33.45
2019-05-07T20:13:06.158Z,29.95
2019-05-07T20:15:35.062Z,30.48
2019-05-07T20:18:06.298Z,35.20
2019-05-07T20:20:34.751Z,32.85
2019-05-07T20:23:03.212Z,32.13
2019-05-07T20:25:33.202Z,35.92
2019-05-07T20:28:02.259Z,29.63
2019-05-07T20:30:32.806Z,35.15
2019-05-07T20:33:02.951Z,33.30
2019-05-07T20:35:32.569Z,36.33
2019-05-07T20:38:02.928Z,34.48
2019-05-07T20:40:32.463Z,34.03
2019-05-07T20:43:01.970Z,36.28
2019-05-07T20:45:32.034Z,38.08
2019-05-07T20:48:02.583Z,32.65
2019-05-07T20:50:33.089Z,35.17
2019-05-07T20:53:02.039Z,29.42
2019-05-07T20:55:38.047Z,31.70
2019-05-07T20:58:06.546Z,34.55
2019-05-07T21:00:35.010Z,37.48
2019-05-07T21:03:23.867Z,37.40
2019-05-07T21:05:53.306Z,30.43
2019-05-07T21:08:22.750Z,34.63
2019-05-07T21:10:57.658Z,34.18
2019-05-07T21:13:31.392Z,37.58
2019-05-07T21:15:56.272Z,37.30
2019-05-07T21:18:24.717Z,35.85
2019-05-07T21:20:54.076Z,37.23
2019-05-07T21:23:23.391Z,26.85
2019-05-07T21:25:52.687Z,35.25
2019-05-07T21:28:21.633Z,32.48
2019-05-07T21:30:52.147Z,43.00
2019-05-07T21:33:22.620Z,42.20
2019-05-07T21:35:52.343Z,41.37
2019-05-07T21:38:22.395Z,41.65
2019-05-07T21:40:50.806Z,54.03
2019-05-07T21:43:19.232Z,44.90
2019-05-07T21:45:47.683Z,44.88
2019-05-07T21:48:16.131Z,50.30
2019-05-07T21:50:44.645Z,51.77
2019-05-07T21:53:22.743Z,51.95
2019-05-07T21:56:03.054Z,49.05
2019-05-07T21:58:48.166Z,60.50
2019-05-07T22:01:18.325Z,46.77
2019-05-07T22:03:52.401Z,54.38
2019-05-07T22:06:22.748Z,49.98
2019-05-07T22:08:54.460Z,47.30
2019-05-07T22:11:22.992Z,46.68
2019-05-07T22:13:57.672Z,57.23
2019-05-07T22:16:26.120Z,54.95
2019-05-07T22:18:54.578Z,53.58
2019-05-07T22:21:23.015Z,58.60
2019-05-07T22:23:59.694Z,61.20
2019-05-07T22:26:28.148Z,63.58
2019-05-07T22:28:56.595Z,55.17
2019-05-07T22:31:32.519Z,60.10
2019-05-07T22:34:22.229Z,60.55
2019-05-07T22:36:52.483Z,59.25
2019-05-07T22:39:22.087Z,49.60
2019-05-07T22:41:50.694Z,53.83
2019-05-07T22:44:19.148Z,66.17
2019-05-07T22:46:47.631Z,68.83
2019-05-07T22:49:16.058Z,62.50
2019-05-07T22:51:45.683Z,55.75
2019-05-07T22:54:14.132Z,51.40
2019-05-07T22:56:59.210Z,59.38
2019-05-07T22:59:27.655Z,63.23
2019-05-07T23:01:56.103Z,63.42
2019-05-07T23:04:24.551Z,68.67
2019-05-07T23:06:53.041Z,57.30
2019-05-07T23:09:22.392Z,64.30
2019-05-07T23:11:52.587Z,65.85
2019-05-07T23:14:22.579Z,72.00
2019-05-07T23:16:52.645Z,71.22
2019-05-07T23:19:22.118Z,74.85
2019-05-07T23:21:52.095Z,66.28
2019-05-07T23:24:22.570Z,63.63
2019-05-07T23:26:53.279Z,54.18
2019-05-07T23:29:22.474Z,57.53
2019-05-07T23:31:52.786Z,65.92
2019-05-07T23:34:22.072Z,67.03
2019-05-07T23:36:53.119Z,61.95
2019-05-07T23:39:22.829Z,64.20
2019-05-07T23:41:58.793Z,66.40
2019-05-07T23:44:27.230Z,65.60
2019-05-07T23:46:55.666Z,66.37
2019-05-07T23:49:24.122Z,53.25
2019-05-07T23:51:53.227Z,56.60
2019-05-07T23:54:23.050Z,56.65
2019-05-07T23:57:05.477Z,62.83
2019-05-07T23:59:22.364Z,61.10
